Weather at Kindersley Airport

Public forecast

Using degrees Celsius for public forecast. Weather courtesy of forecast.io.

Current aviation weather report (METAR) for Kindersley Airport

Retrieved 2021/07/30 00:00 UTC (10 minutes ago):

CYKY 300000Z 03017G28KT 10SM SCT060 BKN100 26/13 A3006 RMK SC4AC3 FU SLP174 DENSITY ALT 3900FT

Closest aviation forecast (TAF) to Kindersley Airport

Closest forecast is North Battleford Airport, 82.7 nm (153.2 km) NNE. Retrieved 2021-07-30 00:39 UTC (0 seconds ago):

TAF CYQW 292338Z 3000/3012 23010KT P6SM SCT100 TEMPO 3000/3003 VRB20G30KT P6SM -SHRA VCTS BKN090CB FM300300 32006KT P6SM SCT080 RMK FCST BASED ON AUTO OBS NXT FCST BY 300600Z